sensor_id;sensor_type;location;lat;lon;timestamp;temperature;humidity
62904;DHT22;49000;50.698;13.322;2023-03-12T00:00:37;-8.20;99.90
62904;DHT22;49000;50.698;13.322;2023-03-12T00:03:02;-7.90;99.90
62904;DHT22;49000;50.698;13.322;2023-03-12T00:05:28;-7.80;99.90
62904;DHT22;49000;50.698;13.322;2023-03-12T00:07:53;-8.30;99.90
62904;DHT22;49000;50.698;13.322;2023-03-12T00:10:26;-7.90;99.90
62904;DHT22;49000;50.698;13.322;2023-03-12T00:12:52;-7.90;99.90
62904;DHT22;49000;50.698;13.322;2023-03-12T00:15:17;-8.10;99.90
62904;DHT22;49000;50.698;13.322;2023-03-12T00:17:43;-8.10;99.90
62904;DHT22;49000;50.698;13.322;2023-03-12T00:20:09;-8.00;99.90
62904;DHT22;49000;50.698;13.322;2023-03-12T00:22:35;-8.00;99.90
62904;DHT22;49000;50.698;13.322;2023-03-12T00:25:01;-7.90;99.90
62904;DHT22;49000;50.698;13.322;2023-03-12T00:27:27;-8.10;99.90
62904;DHT22;49000;50.698;13.322;2023-03-12T00:29:53;-7.90;99.90
62904;DHT22;49000;50.698;13.322;2023-03-12T00:32:18;-8.00;99.90
62904;DHT22;49000;50.698;13.322;2023-03-12T00:34:53;-8.10;99.90
62904;DHT22;49000;50.698;13.322;2023-03-12T00:37:19;-8.10;99.90
62904;DHT22;49000;50.698;13.322;2023-03-12T00:39:44;-8.20;99.90
62904;DHT22;49000;50.698;13.322;2023-03-12T00:42:10;-8.10;99.90
62904;DHT22;49000;50.698;13.322;2023-03-12T00:44:35;-8.10;99.90
62904;DHT22;49000;50.698;13.322;2023-03-12T00:47:01;-7.90;99.90
62904;DHT22;49000;50.698;13.322;2023-03-12T00:49:26;-8.00;99.90
62904;DHT22;49000;50.698;13.322;2023-03-12T00:51:53;-8.00;99.90
62904;DHT22;49000;50.698;13.322;2023-03-12T00:54:19;-7.90;99.90
62904;DHT22;49000;50.698;13.322;2023-03-12T00:56:45;-8.60;99.90
62904;DHT22;49000;50.698;13.322;2023-03-12T00:59:14;-8.00;99.90
62904;DHT22;49000;50.698;13.322;2023-03-12T01:01:40;-8.30;99.90
62904;DHT22;49000;50.698;13.322;2023-03-12T01:04:06;-8.30;99.90
62904;DHT22;49000;50.698;13.322;2023-03-12T01:06:32;-8.30;99.90
62904;DHT22;49000;50.698;13.322;2023-03-12T01:09:00;-8.30;99.90
62904;DHT22;49000;50.698;13.322;2023-03-12T01:11:26;-8.10;99.90
62904;DHT22;49000;50.698;13.322;2023-03-12T01:13:51;-8.30;99.90
62904;DHT22;49000;50.698;13.322;2023-03-12T01:16:17;-8.30;99.90
62904;DHT22;49000;50.698;13.322;2023-03-12T01:18:42;-8.60;99.90
62904;DHT22;49000;50.698;13.322;2023-03-12T01:21:08;-8.20;99.90
62904;DHT22;49000;50.698;13.322;2023-03-12T01:23:33;-8.70;99.90
62904;DHT22;49000;50.698;13.322;2023-03-12T01:25:59;-8.40;99.90
62904;DHT22;49000;50.698;13.322;2023-03-12T01:28:25;-8.80;99.90
62904;DHT22;49000;50.698;13.322;2023-03-12T01:30:51;-8.20;99.90
62904;DHT22;49000;50.698;13.322;2023-03-12T01:33:17;-8.30;99.90
62904;DHT22;49000;50.698;13.322;2023-03-12T01:35:43;-8.60;99.90
62904;DHT22;49000;50.698;13.322;2023-03-12T01:38:14;-8.50;99.90
62904;DHT22;49000;50.698;13.322;2023-03-12T01:40:41;-8.50;99.90
62904;DHT22;49000;50.698;13.322;2023-03-12T01:43:28;-8.50;99.90
62904;DHT22;49000;50.698;13.322;2023-03-12T01:46:05;-8.40;99.90
62904;DHT22;49000;50.698;13.322;2023-03-12T01:48:57;-8.90;99.90
62904;DHT22;49000;50.698;13.322;2023-03-12T01:51:26;-8.40;99.90
62904;DHT22;49000;50.698;13.322;2023-03-12T01:53:55;-8.50;99.90
62904;DHT22;49000;50.698;13.322;2023-03-12T01:56:25;-8.20;99.90
62904;DHT22;49000;50.698;13.322;2023-03-12T01:58:55;-8.40;99.90
62904;DHT22;49000;50.698;13.322;2023-03-12T02:01:24;-8.30;99.90
62904;DHT22;49000;50.698;13.322;2023-03-12T02:03:51;-8.50;99.90
62904;DHT22;49000;50.698;13.322;2023-03-12T02:06:22;-8.60;99.90
62904;DHT22;49000;50.698;13.322;2023-03-12T02:08:49;-8.50;99.90
62904;DHT22;49000;50.698;13.322;2023-03-12T02:11:15;-9.00;99.90
62904;DHT22;49000;50.698;13.322;2023-03-12T02:13:41;-8.30;99.90
62904;DHT22;49000;50.698;13.322;2023-03-12T02:16:07;-8.50;99.90
62904;DHT22;49000;50.698;13.322;2023-03-12T02:18:34;-8.60;99.90
62904;DHT22;49000;50.698;13.322;2023-03-12T02:23:54;-8.40;99.90
62904;DHT22;49000;50.698;13.322;2023-03-12T02:26:22;-8.60;99.90
62904;DHT22;49000;50.698;13.322;2023-03-12T02:28:49;-8.80;99.90
62904;DHT22;49000;50.698;13.322;2023-03-12T02:31:20;-8.70;99.90
62904;DHT22;49000;50.698;13.322;2023-03-12T02:33:47;-8.70;99.90
62904;DHT22;49000;50.698;13.322;2023-03-12T02:36:12;-8.80;99.90
62904;DHT22;49000;50.698;13.322;2023-03-12T02:38:39;-8.70;99.90
62904;DHT22;49000;50.698;13.322;2023-03-12T02:41:35;-8.70;99.90
62904;DHT22;49000;50.698;13.322;2023-03-12T02:46:34;-8.70;99.90
62904;DHT22;49000;50.698;13.322;2023-03-12T02:49:00;-8.80;99.90
62904;DHT22;49000;50.698;13.322;2023-03-12T02:51:26;-8.90;99.90
62904;DHT22;49000;50.698;13.322;2023-03-12T02:53:51;-8.80;99.90
62904;DHT22;49000;50.698;13.322;2023-03-12T02:56:20;-8.90;99.90
62904;DHT22;49000;50.698;13.322;2023-03-12T02:58:46;-8.90;99.90
62904;DHT22;49000;50.698;13.322;2023-03-12T03:01:12;-8.80;99.90
62904;DHT22;49000;50.698;13.322;2023-03-12T03:03:37;-9.00;99.90
62904;DHT22;49000;50.698;13.322;2023-03-12T03:06:03;-9.00;99.90
62904;DHT22;49000;50.698;13.322;2023-03-12T03:08:29;-8.80;99.90
62904;DHT22;49000;50.698;13.322;2023-03-12T03:10:54;-9.00;99.90
62904;DHT22;49000;50.698;13.322;2023-03-12T03:13:20;-8.90;99.90
62904;DHT22;49000;50.698;13.322;2023-03-12T03:15:45;-9.30;99.90
62904;DHT22;49000;50.698;13.322;2023-03-12T03:18:11;-9.10;99.90
62904;DHT22;49000;50.698;13.322;2023-03-12T03:20:36;-9.40;99.90
62904;DHT22;49000;50.698;13.322;2023-03-12T03:23:02;-9.10;99.90
62904;DHT22;49000;50.698;13.322;2023-03-12T03:25:28;-9.10;99.90
62904;DHT22;49000;50.698;13.322;2023-03-12T03:27:54;-9.50;99.90
62904;DHT22;49000;50.698;13.322;2023-03-12T03:30:20;-9.20;99.90
62904;DHT22;49000;50.698;13.322;2023-03-12T03:32:47;-9.10;99.90
62904;DHT22;49000;50.698;13.322;2023-03-12T03:35:12;-9.50;99.90
62904;DHT22;49000;50.698;13.322;2023-03-12T03:37:38;-9.10;99.90
62904;DHT22;49000;50.698;13.322;2023-03-12T03:40:04;-9.30;99.90
62904;DHT22;49000;50.698;13.322;2023-03-12T03:42:30;-9.20;99.90
62904;DHT22;49000;50.698;13.322;2023-03-12T03:44:55;-9.10;99.90
62904;DHT22;49000;50.698;13.322;2023-03-12T03:47:21;-9.60;99.90
62904;DHT22;49000;50.698;13.322;2023-03-12T03:49:46;-9.10;99.90
62904;DHT22;49000;50.698;13.322;2023-03-12T03:52:12;-9.30;99.90
62904;DHT22;49000;50.698;13.322;2023-03-12T03:54:37;-9.80;99.90
62904;DHT22;49000;50.698;13.322;2023-03-12T03:57:03;-9.60;99.90
62904;DHT22;49000;50.698;13.322;2023-03-12T03:59:28;-9.40;99.90
62904;DHT22;49000;50.698;13.322;2023-03-12T04:01:54;-9.30;99.90
62904;DHT22;49000;50.698;13.322;2023-03-12T04:04:20;-9.30;99.90
62904;DHT22;49000;50.698;13.322;2023-03-12T04:06:45;-9.40;99.90
62904;DHT22;49000;50.698;13.322;2023-03-12T04:09:11;-9.70;99.90
62904;DHT22;49000;50.698;13.322;2023-03-12T04:11:36;-9.30;99.90
62904;DHT22;49000;50.698;13.322;2023-03-12T04:14:02;-9.20;99.90
62904;DHT22;49000;50.698;13.322;2023-03-12T04:16:28;-9.40;99.90
62904;DHT22;49000;50.698;13.322;2023-03-12T04:18:53;-9.80;99.90
62904;DHT22;49000;50.698;13.322;2023-03-12T04:21:19;-9.40;99.90
62904;DHT22;49000;50.698;13.322;2023-03-12T04:23:45;-10.00;99.90
62904;DHT22;49000;50.698;13.322;2023-03-12T04:26:10;-9.60;99.90
62904;DHT22;49000;50.698;13.322;2023-03-12T04:28:36;-9.50;99.90
62904;DHT22;49000;50.698;13.322;2023-03-12T04:31:04;-9.30;99.90
62904;DHT22;49000;50.698;13.322;2023-03-12T04:33:34;-9.60;99.90
62904;DHT22;49000;50.698;13.322;2023-03-12T04:36:00;-9.30;99.90
62904;DHT22;49000;50.698;13.322;2023-03-12T04:38:26;-9.60;99.90
62904;DHT22;49000;50.698;13.322;2023-03-12T04:43:24;-9.50;99.90
62904;DHT22;49000;50.698;13.322;2023-03-12T04:45:49;-9.30;99.90
62904;DHT22;49000;50.698;13.322;2023-03-12T04:48:15;-9.40;99.90
62904;DHT22;49000;50.698;13.322;2023-03-12T04:50:40;-9.60;99.90
62904;DHT22;49000;50.698;13.322;2023-03-12T04:53:06;-9.40;99.90
62904;DHT22;49000;50.698;13.322;2023-03-12T04:55:31;-9.80;99.90
62904;DHT22;49000;50.698;13.322;2023-03-12T04:57:57;-10.00;99.90
62904;DHT22;49000;50.698;13.322;2023-03-12T05:00:22;-10.00;99.90
62904;DHT22;49000;50.698;13.322;2023-03-12T05:02:48;-9.60;99.90
62904;DHT22;49000;50.698;13.322;2023-03-12T05:05:13;-9.90;99.90
62904;DHT22;49000;50.698;13.322;2023-03-12T05:07:39;-9.90;99.90
62904;DHT22;49000;50.698;13.322;2023-03-12T05:10:05;-9.30;99.90
62904;DHT22;49000;50.698;13.322;2023-03-12T05:12:30;-9.30;99.90
62904;DHT22;49000;50.698;13.322;2023-03-12T05:14:56;-9.50;99.90
62904;DHT22;49000;50.698;13.322;2023-03-12T05:17:21;-9.30;99.90
62904;DHT22;49000;50.698;13.322;2023-03-12T05:19:47;-9.30;99.90
62904;DHT22;49000;50.698;13.322;2023-03-12T05:22:12;-9.20;99.90
62904;DHT22;49000;50.698;13.322;2023-03-12T05:24:38;-9.40;99.90
62904;DHT22;49000;50.698;13.322;2023-03-12T05:27:03;-9.20;99.90
62904;DHT22;49000;50.698;13.322;2023-03-12T05:29:29;-9.20;99.90
62904;DHT22;49000;50.698;13.322;2023-03-12T05:32:02;-9.10;99.90
62904;DHT22;49000;50.698;13.322;2023-03-12T05:34:28;-9.00;99.90
62904;DHT22;49000;50.698;13.322;2023-03-12T05:36:55;-9.00;99.90
62904;DHT22;49000;50.698;13.322;2023-03-12T05:39:21;-8.90;99.90
62904;DHT22;49000;50.698;13.322;2023-03-12T05:41:47;-8.90;99.90
62904;DHT22;49000;50.698;13.322;2023-03-12T05:44:12;-8.80;99.90
62904;DHT22;49000;50.698;13.322;2023-03-12T05:46:43;-8.90;99.90
62904;DHT22;49000;50.698;13.322;2023-03-12T05:49:08;-8.80;99.90
62904;DHT22;49000;50.698;13.322;2023-03-12T05:51:34;-8.80;99.90
62904;DHT22;49000;50.698;13.322;2023-03-12T05:54:00;-8.80;99.90
62904;DHT22;49000;50.698;13.322;2023-03-12T05:56:26;-8.60;99.90
62904;DHT22;49000;50.698;13.322;2023-03-12T05:58:51;-8.30;99.90
62904;DHT22;49000;50.698;13.322;2023-03-12T06:01:23;-8.20;99.90
62904;DHT22;49000;50.698;13.322;2023-03-12T06:03:49;-8.30;99.90
62904;DHT22;49000;50.698;13.322;2023-03-12T06:06:14;-8.00;99.90
62904;DHT22;49000;50.698;13.322;2023-03-12T06:08:41;-8.10;99.90
62904;DHT22;49000;50.698;13.322;2023-03-12T06:11:06;-8.60;99.90
62904;DHT22;49000;50.698;13.322;2023-03-12T06:13:32;-8.30;99.90
62904;DHT22;49000;50.698;13.322;2023-03-12T06:16:03;-7.70;99.90
62904;DHT22;49000;50.698;13.322;2023-03-12T06:18:30;-7.60;99.90
62904;DHT22;49000;50.698;13.322;2023-03-12T06:21:16;-7.80;99.90
62904;DHT22;49000;50.698;13.322;2023-03-12T06:23:43;-7.60;99.90
62904;DHT22;49000;50.698;13.322;2023-03-12T06:26:10;-7.40;99.90
62904;DHT22;49000;50.698;13.322;2023-03-12T06:28:36;-7.40;99.90
62904;DHT22;49000;50.698;13.322;2023-03-12T06:31:01;-7.40;99.90
62904;DHT22;49000;50.698;13.322;2023-03-12T06:33:27;-7.80;99.90
62904;DHT22;49000;50.698;13.322;2023-03-12T06:35:54;-7.30;99.90
62904;DHT22;49000;50.698;13.322;2023-03-12T06:38:19;-7.10;99.90
62904;DHT22;49000;50.698;13.322;2023-03-12T06:40:56;-7.50;99.90
62904;DHT22;49000;50.698;13.322;2023-03-12T06:43:22;-6.90;99.90
62904;DHT22;49000;50.698;13.322;2023-03-12T06:45:48;-6.90;99.90
62904;DHT22;49000;50.698;13.322;2023-03-12T06:48:13;-6.70;99.90
62904;DHT22;49000;50.698;13.322;2023-03-12T06:50:39;-6.90;99.90
62904;DHT22;49000;50.698;13.322;2023-03-12T06:53:04;-6.70;99.90
62904;DHT22;49000;50.698;13.322;2023-03-12T06:55:30;-6.70;99.90
62904;DHT22;49000;50.698;13.322;2023-03-12T06:57:56;-6.90;99.90
62904;DHT22;49000;50.698;13.322;2023-03-12T07:00:21;-6.80;99.90
62904;DHT22;49000;50.698;13.322;2023-03-12T07:02:47;-6.90;99.90
62904;DHT22;49000;50.698;13.322;2023-03-12T07:05:12;-7.00;99.90
62904;DHT22;49000;50.698;13.322;2023-03-12T07:07:38;-7.40;99.90
62904;DHT22;49000;50.698;13.322;2023-03-12T07:10:04;-6.80;99.90
62904;DHT22;49000;50.698;13.322;2023-03-12T07:12:31;-6.90;99.90
62904;DHT22;49000;50.698;13.322;2023-03-12T07:14:57;-7.30;99.90
62904;DHT22;49000;50.698;13.322;2023-03-12T07:17:23;-6.80;99.90
62904;DHT22;49000;50.698;13.322;2023-03-12T07:19:50;-6.70;99.90
62904;DHT22;49000;50.698;13.322;2023-03-12T07:22:16;-6.50;99.90
62904;DHT22;49000;50.698;13.322;2023-03-12T07:24:41;-6.20;99.90
62904;DHT22;49000;50.698;13.322;2023-03-12T07:27:07;-6.00;99.90
62904;DHT22;49000;50.698;13.322;2023-03-12T07:29:32;-5.80;99.90
62904;DHT22;49000;50.698;13.322;2023-03-12T07:31:58;-5.40;99.90
62904;DHT22;49000;50.698;13.322;2023-03-12T07:34:23;-5.00;99.90
62904;DHT22;49000;50.698;13.322;2023-03-12T07:36:49;-4.60;99.90
62904;DHT22;49000;50.698;13.322;2023-03-12T07:39:14;-4.60;99.90
62904;DHT22;49000;50.698;13.322;2023-03-12T07:41:40;-4.30;99.90
62904;DHT22;49000;50.698;13.322;2023-03-12T07:44:05;-3.20;99.90
62904;DHT22;49000;50.698;13.322;2023-03-12T07:46:31;-3.10;99.90
62904;DHT22;49000;50.698;13.322;2023-03-12T07:48:56;-2.50;99.90
62904;DHT22;49000;50.698;13.322;2023-03-12T07:51:22;-1.90;99.90
62904;DHT22;49000;50.698;13.322;2023-03-12T07:53:47;-2.00;99.90
62904;DHT22;49000;50.698;13.322;2023-03-12T07:56:13;-1.40;99.90
62904;DHT22;49000;50.698;13.322;2023-03-12T07:58:38;-0.80;99.90
62904;DHT22;49000;50.698;13.322;2023-03-12T08:01:04;-0.70;99.90
62904;DHT22;49000;50.698;13.322;2023-03-12T08:03:31;-0.40;99.90
62904;DHT22;49000;50.698;13.322;2023-03-12T08:06:02;-0.30;99.90
62904;DHT22;49000;50.698;13.322;2023-03-12T08:08:29;0.10;99.90
62904;DHT22;49000;50.698;13.322;2023-03-12T08:10:55;0.60;99.90
62904;DHT22;49000;50.698;13.322;2023-03-12T08:13:22;0.50;99.90
62904;DHT22;49000;50.698;13.322;2023-03-12T08:15:49;0.80;99.90
62904;DHT22;49000;50.698;13.322;2023-03-12T08:18:16;0.90;99.90
62904;DHT22;49000;50.698;13.322;2023-03-12T08:20:42;1.10;99.90
62904;DHT22;49000;50.698;13.322;2023-03-12T08:23:07;0.60;99.90
62904;DHT22;49000;50.698;13.322;2023-03-12T08:25:33;0.80;90.80
62904;DHT22;49000;50.698;13.322;2023-03-12T08:28:01;1.80;91.50
62904;DHT22;49000;50.698;13.322;2023-03-12T08:30:28;2.10;68.90
62904;DHT22;49000;50.698;13.322;2023-03-12T08:32:53;2.20;59.60
62904;DHT22;49000;50.698;13.322;2023-03-12T08:35:19;2.00;48.20
62904;DHT22;49000;50.698;13.322;2023-03-12T08:37:44;2.60;42.80
62904;DHT22;49000;50.698;13.322;2023-03-12T08:40:10;2.80;41.40
62904;DHT22;49000;50.698;13.322;2023-03-12T08:42:41;3.10;30.00
62904;DHT22;49000;50.698;13.322;2023-03-12T08:45:08;3.40;31.10
62904;DHT22;49000;50.698;13.322;2023-03-12T08:47:34;3.70;21.70
62904;DHT22;49000;50.698;13.322;2023-03-12T08:50:00;3.60;26.20
62904;DHT22;49000;50.698;13.322;2023-03-12T08:52:26;3.20;24.90
62904;DHT22;49000;50.698;13.322;2023-03-12T08:54:52;3.80;18.00
62904;DHT22;49000;50.698;13.322;2023-03-12T08:57:17;3.90;18.10
62904;DHT22;49000;50.698;13.322;2023-03-12T08:59:44;4.20;19.20
62904;DHT22;49000;50.698;13.322;2023-03-12T09:02:11;4.50;19.00
62904;DHT22;49000;50.698;13.322;2023-03-12T09:04:36;4.20;15.90
62904;DHT22;49000;50.698;13.322;2023-03-12T09:07:02;4.50;19.30
62904;DHT22;49000;50.698;13.322;2023-03-12T09:09:28;4.60;20.10
62904;DHT22;49000;50.698;13.322;2023-03-12T09:11:53;4.80;18.70
62904;DHT22;49000;50.698;13.322;2023-03-12T09:14:19;4.30;16.50
62904;DHT22;49000;50.698;13.322;2023-03-12T09:16:45;4.20;17.50
62904;DHT22;49000;50.698;13.322;2023-03-12T09:19:10;4.50;15.50
62904;DHT22;49000;50.698;13.322;2023-03-12T09:21:35;4.10;18.40
62904;DHT22;49000;50.698;13.322;2023-03-12T09:24:01;4.60;16.90
62904;DHT22;49000;50.698;13.322;2023-03-12T09:26:27;5.20;14.30
62904;DHT22;49000;50.698;13.322;2023-03-12T09:28:52;5.20;12.50
62904;DHT22;49000;50.698;13.322;2023-03-12T09:31:18;5.50;11.30
62904;DHT22;49000;50.698;13.322;2023-03-12T09:33:44;6.00;14.60
62904;DHT22;49000;50.698;13.322;2023-03-12T09:36:09;5.50;11.20
62904;DHT22;49000;50.698;13.322;2023-03-12T09:38:35;5.50;12.50
62904;DHT22;49000;50.698;13.322;2023-03-12T09:41:04;5.90;12.70
62904;DHT22;49000;50.698;13.322;2023-03-12T09:43:40;6.00;10.50
62904;DHT22;49000;50.698;13.322;2023-03-12T09:46:14;6.80;9.60
62904;DHT22;49000;50.698;13.322;2023-03-12T09:48:42;6.80;9.00
62904;DHT22;49000;50.698;13.322;2023-03-12T09:51:16;6.60;6.00
62904;DHT22;49000;50.698;13.322;2023-03-12T09:53:55;6.40;6.50
62904;DHT22;49000;50.698;13.322;2023-03-12T09:56:22;7.20;6.40
62904;DHT22;49000;50.698;13.322;2023-03-12T09:58:48;7.40;5.80
62904;DHT22;49000;50.698;13.322;2023-03-12T10:01:46;7.50;2.60
62904;DHT22;49000;50.698;13.322;2023-03-12T10:07:08;8.00;1.00
62904;DHT22;49000;50.698;13.322;2023-03-12T10:10:10;7.00;4.10
62904;DHT22;49000;50.698;13.322;2023-03-12T10:15:54;7.60;4.90
62904;DHT22;49000;50.698;13.322;2023-03-12T10:21:48;7.50;3.90
62904;DHT22;49000;50.698;13.322;2023-03-12T10:26:57;7.40;1.00
62904;DHT22;49000;50.698;13.322;2023-03-12T10:29:35;6.90;1.00
62904;DHT22;49000;50.698;13.322;2023-03-12T10:32:05;7.10;1.00
62904;DHT22;49000;50.698;13.322;2023-03-12T10:34:42;7.50;1.00
62904;DHT22;49000;50.698;13.322;2023-03-12T10:37:28;8.00;1.00
62904;DHT22;49000;50.698;13.322;2023-03-12T10:39:56;7.90;1.00
62904;DHT22;49000;50.698;13.322;2023-03-12T10:42:26;7.50;1.00
62904;DHT22;49000;50.698;13.322;2023-03-12T10:45:33;7.80;1.00
62904;DHT22;49000;50.698;13.322;2023-03-12T10:48:06;8.00;1.00
62904;DHT22;49000;50.698;13.322;2023-03-12T10:50:38;7.50;1.00
62904;DHT22;49000;50.698;13.322;2023-03-12T10:53:20;7.80;1.00
62904;DHT22;49000;50.698;13.322;2023-03-12T10:56:04;8.00;1.00
62904;DHT22;49000;50.698;13.322;2023-03-12T10:58:33;8.20;1.00
62904;DHT22;49000;50.698;13.322;2023-03-12T11:01:01;8.20;1.00
62904;DHT22;49000;50.698;13.322;2023-03-12T11:03:27;8.30;1.00
62904;DHT22;49000;50.698;13.322;2023-03-12T11:05:55;7.80;3.70
62904;DHT22;49000;50.698;13.322;2023-03-12T11:08:33;8.10;4.20
62904;DHT22;49000;50.698;13.322;2023-03-12T11:11:00;8.00;2.20
62904;DHT22;49000;50.698;13.322;2023-03-12T11:13:38;8.30;2.00
62904;DHT22;49000;50.698;13.322;2023-03-12T11:19:11;8.30;2.50
62904;DHT22;49000;50.698;13.322;2023-03-12T11:21:37;7.70;1.00
62904;DHT22;49000;50.698;13.322;2023-03-12T11:26:36;8.10;4.50
62904;DHT22;49000;50.698;13.322;2023-03-12T11:29:26;7.70;2.60
62904;DHT22;49000;50.698;13.322;2023-03-12T11:34:36;7.90;1.80
62904;DHT22;49000;50.698;13.322;2023-03-12T11:37:13;7.80;1.30
62904;DHT22;49000;50.698;13.322;2023-03-12T11:42:35;7.50;4.30
62904;DHT22;49000;50.698;13.322;2023-03-12T11:56:40;7.90;3.60
62904;DHT22;49000;50.698;13.322;2023-03-12T11:59:30;7.70;4.40
62904;DHT22;49000;50.698;13.322;2023-03-12T12:05:20;7.80;3.70
62904;DHT22;49000;50.698;13.322;2023-03-12T12:11:05;7.90;2.40
62904;DHT22;49000;50.698;13.322;2023-03-12T12:19:29;7.40;1.00
62904;DHT22;49000;50.698;13.322;2023-03-12T12:27:40;7.90;3.80
62904;DHT22;49000;50.698;13.322;2023-03-12T12:36:23;7.80;2.30
62904;DHT22;49000;50.698;13.322;2023-03-12T12:39:18;7.30;1.00
62904;DHT22;49000;50.698;13.322;2023-03-12T12:41:50;7.40;1.60
62904;DHT22;49000;50.698;13.322;2023-03-12T12:44:22;7.20;2.80
62904;DHT22;49000;50.698;13.322;2023-03-12T12:46:54;6.70;1.00
62904;DHT22;49000;50.698;13.322;2023-03-12T12:49:31;6.80;2.20
62904;DHT22;49000;50.698;13.322;2023-03-12T12:52:02;6.60;1.80
62904;DHT22;49000;50.698;13.322;2023-03-12T12:54:44;6.30;3.40
62904;DHT22;49000;50.698;13.322;2023-03-12T12:57:34;6.60;2.90
62904;DHT22;49000;50.698;13.322;2023-03-12T13:02:52;6.30;3.40
62904;DHT22;49000;50.698;13.322;2023-03-12T13:05:39;6.00;5.20
62904;DHT22;49000;50.698;13.322;2023-03-12T13:08:06;5.80;3.20
62904;DHT22;49000;50.698;13.322;2023-03-12T13:13:12;5.40;6.20
62904;DHT22;49000;50.698;13.322;2023-03-12T13:15:42;5.50;6.20
62904;DHT22;49000;50.698;13.322;2023-03-12T13:21:21;5.50;9.50
62904;DHT22;49000;50.698;13.322;2023-03-12T13:26:30;5.00;9.60
62904;DHT22;49000;50.698;13.322;2023-03-12T13:29:16;4.80;12.10
62904;DHT22;49000;50.698;13.322;2023-03-12T13:31:43;4.60;12.00
62904;DHT22;49000;50.698;13.322;2023-03-12T13:36:45;4.60;13.90
62904;DHT22;49000;50.698;13.322;2023-03-12T13:39:32;4.60;14.80
62904;DHT22;49000;50.698;13.322;2023-03-12T13:42:00;4.90;16.70
62904;DHT22;49000;50.698;13.322;2023-03-12T13:49:44;4.70;13.30
62904;DHT22;49000;50.698;13.322;2023-03-12T13:52:21;4.60;13.40
62904;DHT22;49000;50.698;13.322;2023-03-12T13:55:05;4.60;15.00
62904;DHT22;49000;50.698;13.322;2023-03-12T13:57:38;4.70;13.20
62904;DHT22;49000;50.698;13.322;2023-03-12T14:00:29;4.70;16.20
62904;DHT22;49000;50.698;13.322;2023-03-12T14:03:05;4.80;13.00
62904;DHT22;49000;50.698;13.322;2023-03-12T14:16:41;4.10;21.60
62904;DHT22;49000;50.698;13.322;2023-03-12T14:19:11;4.40;23.40
62904;DHT22;49000;50.698;13.322;2023-03-12T14:21:38;4.40;22.60
62904;DHT22;49000;50.698;13.322;2023-03-12T14:24:06;4.20;22.20
62904;DHT22;49000;50.698;13.322;2023-03-12T14:26:35;4.10;21.70
62904;DHT22;49000;50.698;13.322;2023-03-12T14:29:20;4.00;20.90
62904;DHT22;49000;50.698;13.322;2023-03-12T14:31:47;4.20;22.60
62904;DHT22;49000;50.698;13.322;2023-03-12T14:34:28;4.30;22.60
62904;DHT22;49000;50.698;13.322;2023-03-12T14:39:50;4.50;22.30
62904;DHT22;49000;50.698;13.322;2023-03-12T14:42:23;4.20;22.90
62904;DHT22;49000;50.698;13.322;2023-03-12T14:44:59;3.80;23.00
62904;DHT22;49000;50.698;13.322;2023-03-12T14:47:25;4.20;22.90
62904;DHT22;49000;50.698;13.322;2023-03-12T14:49:50;4.10;24.90
62904;DHT22;49000;50.698;13.322;2023-03-12T14:52:24;3.60;25.20
62904;DHT22;49000;50.698;13.322;2023-03-12T14:55:10;3.90;29.70
62904;DHT22;49000;50.698;13.322;2023-03-12T14:57:36;4.00;32.30
62904;DHT22;49000;50.698;13.322;2023-03-12T15:00:02;3.60;34.40
62904;DHT22;49000;50.698;13.322;2023-03-12T15:02:30;4.00;36.80
62904;DHT22;49000;50.698;13.322;2023-03-12T15:04:59;3.80;37.60
62904;DHT22;49000;50.698;13.322;2023-03-12T15:07:29;3.90;43.50
62904;DHT22;49000;50.698;13.322;2023-03-12T15:09:56;3.20;57.10
62904;DHT22;49000;50.698;13.322;2023-03-12T15:12:24;3.30;68.60
62904;DHT22;49000;50.698;13.322;2023-03-12T15:14:53;3.60;81.40
62904;DHT22;49000;50.698;13.322;2023-03-12T15:17:21;3.40;99.00
62904;DHT22;49000;50.698;13.322;2023-03-12T15:19:48;3.50;99.90
62904;DHT22;49000;50.698;13.322;2023-03-12T15:22:20;3.30;99.90
62904;DHT22;49000;50.698;13.322;2023-03-12T15:24:47;3.10;99.90
62904;DHT22;49000;50.698;13.322;2023-03-12T15:29:53;3.60;99.90
62904;DHT22;49000;50.698;13.322;2023-03-12T15:32:21;3.40;99.90
62904;DHT22;49000;50.698;13.322;2023-03-12T15:34:50;3.20;99.90
62904;DHT22;49000;50.698;13.322;2023-03-12T15:37:27;3.50;99.90
62904;DHT22;49000;50.698;13.322;2023-03-12T15:40:22;3.50;99.90
62904;DHT22;49000;50.698;13.322;2023-03-12T15:42:49;3.80;99.90
62904;DHT22;49000;50.698;13.322;2023-03-12T15:45:28;3.70;99.90
62904;DHT22;49000;50.698;13.322;2023-03-12T15:47:56;3.80;99.90
62904;DHT22;49000;50.698;13.322;2023-03-12T15:50:42;3.90;99.90
62904;DHT22;49000;50.698;13.322;2023-03-12T15:55:40;3.60;99.90
62904;DHT22;49000;50.698;13.322;2023-03-12T16:00:50;3.40;99.90
62904;DHT22;49000;50.698;13.322;2023-03-12T16:03:18;3.50;99.90
62904;DHT22;49000;50.698;13.322;2023-03-12T16:05:45;3.20;99.90
62904;DHT22;49000;50.698;13.322;2023-03-12T16:08:19;3.50;99.90
62904;DHT22;49000;50.698;13.322;2023-03-12T16:10:47;3.40;99.90
62904;DHT22;49000;50.698;13.322;2023-03-12T16:13:15;3.20;99.90
62904;DHT22;49000;50.698;13.322;2023-03-12T16:15:42;3.40;99.90
62904;DHT22;49000;50.698;13.322;2023-03-12T16:18:13;3.50;99.90
62904;DHT22;49000;50.698;13.322;2023-03-12T16:20:38;3.50;99.90
62904;DHT22;49000;50.698;13.322;2023-03-12T16:23:04;3.20;99.90
62904;DHT22;49000;50.698;13.322;2023-03-12T16:25:30;3.00;99.90
62904;DHT22;49000;50.698;13.322;2023-03-12T16:27:57;3.50;99.90
62904;DHT22;49000;50.698;13.322;2023-03-12T16:30:30;3.50;99.90
62904;DHT22;49000;50.698;13.322;2023-03-12T16:32:57;3.70;99.90
62904;DHT22;49000;50.698;13.322;2023-03-12T16:35:23;3.10;99.90
62904;DHT22;49000;50.698;13.322;2023-03-12T16:37:48;3.60;99.90
62904;DHT22;49000;50.698;13.322;2023-03-12T16:40:15;3.10;99.90
62904;DHT22;49000;50.698;13.322;2023-03-12T16:42:44;3.40;99.90
62904;DHT22;49000;50.698;13.322;2023-03-12T16:45:13;3.30;99.90
62904;DHT22;49000;50.698;13.322;2023-03-12T16:47:40;3.40;99.90
62904;DHT22;49000;50.698;13.322;2023-03-12T16:50:16;3.20;99.90
62904;DHT22;49000;50.698;13.322;2023-03-12T16:52:43;3.50;99.90
62904;DHT22;49000;50.698;13.322;2023-03-12T16:55:14;3.30;99.90
62904;DHT22;49000;50.698;13.322;2023-03-12T16:57:49;3.10;99.90
62904;DHT22;49000;50.698;13.322;2023-03-12T17:00:19;3.40;99.90
62904;DHT22;49000;50.698;13.322;2023-03-12T17:02:46;3.40;99.90
62904;DHT22;49000;50.698;13.322;2023-03-12T17:05:12;3.00;99.90
62904;DHT22;49000;50.698;13.322;2023-03-12T17:07:37;3.40;99.90
62904;DHT22;49000;50.698;13.322;2023-03-12T17:10:04;2.90;99.90
62904;DHT22;49000;50.698;13.322;2023-03-12T17:12:33;3.40;99.90
62904;DHT22;49000;50.698;13.322;2023-03-12T17:15:07;3.00;99.90
62904;DHT22;49000;50.698;13.322;2023-03-12T17:17:35;3.40;99.90
62904;DHT22;49000;50.698;13.322;2023-03-12T17:20:01;3.30;99.90
62904;DHT22;49000;50.698;13.322;2023-03-12T17:22:31;2.90;99.90